createdAt,value
2019-01-31T00:03:00.849Z,5.65
2019-01-31T00:05:47.800Z,6.03
2019-01-31T00:08:46.136Z,7.05
2019-01-31T00:11:43.848Z,6.33
2019-01-31T00:15:05.037Z,6.20
2019-01-31T00:18:15.114Z,6.37
2019-01-31T00:21:40.102Z,7.10
2019-01-31T00:24:35.910Z,6.85
2019-01-31T00:27:51.744Z,6.37
2019-01-31T00:30:31.911Z,6.35
2019-01-31T00:33:16.897Z,6.70
2019-01-31T00:36:37.604Z,6.80
2019-01-31T00:39:39.873Z,6.15
2019-01-31T00:42:44.171Z,7.40
2019-01-31T00:45:37.113Z,7.40
2019-01-31T00:48:20.849Z,7.28
2019-01-31T00:50:54.583Z,7.53
2019-01-31T00:53:57.632Z,7.17
2019-01-31T00:56:44.530Z,8.05
2019-01-31T01:00:06.440Z,6.20
2019-01-31T01:02:45.210Z,8.08
2019-01-31T01:05:47.258Z,7.30
2019-01-31T01:08:26.558Z,10.05
2019-01-31T01:11:39.230Z,8.90
2019-01-31T01:14:29.783Z,8.00
2019-01-31T01:17:12.177Z,7.67
2019-01-31T01:20:06.753Z,8.00
2019-01-31T01:22:43.357Z,6.70
2019-01-31T01:25:55.177Z,7.75
2019-01-31T01:28:44.540Z,7.05
2019-01-31T01:32:00.042Z,6.65
2019-01-31T01:34:49.365Z,6.95
2019-01-31T01:37:57.873Z,6.70
2019-01-31T01:40:56.818Z,6.10
2019-01-31T01:43:50.239Z,6.92
2019-01-31T01:46:59.894Z,7.60
2019-01-31T01:50:05.050Z,6.65
2019-01-31T01:53:12.246Z,7.15
2019-01-31T01:56:30.807Z,7.50
2019-01-31T01:59:11.562Z,6.85
2019-01-31T02:01:50.930Z,6.47
2019-01-31T02:04:41.774Z,6.12
2019-01-31T02:07:57.980Z,6.75
2019-01-31T02:10:41.012Z,5.10
2019-01-31T02:13:49.877Z,5.60
2019-01-31T02:16:42.753Z,5.50
2019-01-31T02:19:34.529Z,4.83
2019-01-31T02:22:49.091Z,5.47
2019-01-31T02:25:54.706Z,4.83
2019-01-31T02:28:33.655Z,4.78
2019-01-31T02:31:32.025Z,4.55
2019-01-31T02:34:38.170Z,4.80
2019-01-31T02:37:40.959Z,4.75
2019-01-31T02:40:46.035Z,4.78
2019-01-31T02:43:45.754Z,4.65
2019-01-31T02:46:33.758Z,4.67
2019-01-31T02:49:36.998Z,4.58
2019-01-31T02:52:33.393Z,5.20
2019-01-31T02:55:27.851Z,4.90
2019-01-31T02:58:30.367Z,4.92
2019-01-31T03:01:38.708Z,4.70
2019-01-31T03:05:04.225Z,4.37
2019-01-31T03:08:16.934Z,4.35
2019-01-31T03:10:56.853Z,5.20
2019-01-31T03:13:48.420Z,4.20
2019-01-31T03:16:42.961Z,4.87
2019-01-31T03:19:50.079Z,5.40
2019-01-31T03:22:32.793Z,4.45
2019-01-31T03:25:27.004Z,4.50
2019-01-31T03:28:36.810Z,5.37
2019-01-31T03:31:29.833Z,6.10
2019-01-31T03:34:24.152Z,5.12
2019-01-31T03:37:27.559Z,4.85
2019-01-31T03:40:27.760Z,6.35
2019-01-31T03:43:35.880Z,5.50
2019-01-31T03:46:14.337Z,4.20
2019-01-31T03:48:54.968Z,4.85
2019-01-31T03:52:00.228Z,5.40
2019-01-31T03:54:37.168Z,4.97
2019-01-31T03:57:39.144Z,5.42
2019-01-31T04:00:52.185Z,5.70
2019-01-31T04:03:45.896Z,5.40
2019-01-31T04:06:21.982Z,6.78
2019-01-31T04:08:50.554Z,7.30
2019-01-31T04:11:19.110Z,7.75
2019-01-31T04:13:47.695Z,9.45
2019-01-31T04:16:16.259Z,10.80
2019-01-31T04:18:44.844Z,9.63
2019-01-31T04:21:13.676Z,9.53
2019-01-31T04:23:42.235Z,10.58
2019-01-31T04:26:10.810Z,8.90
2019-01-31T04:28:39.458Z,6.90
2019-01-31T04:31:08.116Z,6.58
2019-01-31T04:33:36.691Z,6.20
2019-01-31T04:36:05.367Z,6.42
2019-01-31T04:38:33.945Z,6.83
2019-01-31T04:41:02.525Z,6.45
2019-01-31T04:43:31.088Z,6.37
2019-01-31T04:45:59.772Z,7.70
2019-01-31T04:48:28.333Z,7.35
2019-01-31T04:50:57.148Z,7.42
2019-01-31T04:53:25.704Z,7.80
2019-01-31T04:55:54.295Z,7.62
2019-01-31T04:58:22.851Z,10.60
2019-01-31T05:00:51.418Z,7.05
2019-01-31T05:03:20.072Z,6.85
2019-01-31T05:05:48.742Z,6.50
2019-01-31T05:08:17.626Z,7.15
2019-01-31T05:10:46.223Z,6.72
2019-01-31T05:13:14.850Z,6.20
2019-01-31T05:15:43.509Z,6.42
2019-01-31T05:18:12.224Z,6.25
2019-01-31T05:20:40.874Z,8.50
2019-01-31T05:23:09.509Z,7.28
2019-01-31T05:25:38.220Z,6.47
2019-01-31T05:28:06.934Z,6.37
2019-01-31T05:30:35.776Z,6.60
2019-01-31T05:33:04.506Z,7.17
2019-01-31T05:35:33.212Z,9.13
2019-01-31T05:38:01.820Z,6.95
2019-01-31T05:40:30.728Z,6.97
2019-01-31T05:42:59.374Z,7.30
2019-01-31T05:45:28.102Z,6.65
2019-01-31T05:47:56.843Z,6.90
2019-01-31T05:50:25.489Z,7.20
2019-01-31T05:52:54.149Z,6.58
2019-01-31T05:55:22.871Z,7.72
2019-01-31T05:57:51.527Z,7.00
2019-01-31T06:00:26.631Z,6.70
2019-01-31T06:02:55.234Z,7.15
2019-01-31T06:05:23.903Z,6.60
2019-01-31T06:07:52.651Z,7.05
2019-01-31T06:10:21.314Z,6.35
2019-01-31T06:12:49.977Z,6.85
2019-01-31T06:15:18.866Z,6.92
2019-01-31T06:17:47.392Z,7.33
2019-01-31T06:20:19.048Z,7.58
2019-01-31T06:22:47.651Z,7.35
2019-01-31T06:25:16.247Z,7.75
2019-01-31T06:27:44.861Z,6.45
2019-01-31T06:30:14.854Z,7.03
2019-01-31T06:32:43.434Z,7.10
2019-01-31T06:35:12.213Z,8.45
2019-01-31T06:37:40.898Z,7.58
2019-01-31T06:40:12.029Z,9.50
2019-01-31T06:42:40.699Z,7.78
2019-01-31T06:45:11.991Z,8.63
2019-01-31T06:47:40.675Z,8.25
2019-01-31T06:50:09.425Z,7.78
2019-01-31T06:52:38.042Z,7.15
2019-01-31T06:55:06.912Z,7.05
2019-01-31T06:57:35.515Z,8.40
2019-01-31T07:00:05.914Z,8.40
2019-01-31T07:02:34.574Z,8.78
2019-01-31T07:05:03.219Z,9.00
2019-01-31T07:07:32.835Z,9.50
2019-01-31T07:10:01.405Z,8.73
2019-01-31T07:12:30.105Z,9.03
2019-01-31T07:14:58.631Z,7.53
2019-01-31T07:17:27.203Z,8.95
2019-01-31T07:19:56.622Z,9.45
2019-01-31T07:22:25.398Z,7.08
2019-01-31T07:24:54.215Z,5.92
2019-01-31T07:27:22.781Z,6.42
2019-01-31T07:29:51.379Z,7.83
2019-01-31T07:32:20.324Z,5.55
2019-01-31T07:34:48.907Z,6.80
2019-01-31T07:37:17.505Z,5.40
2019-01-31T07:39:46.080Z,3.90
2019-01-31T07:42:14.902Z,4.03
2019-01-31T07:44:43.527Z,4.10
2019-01-31T07:47:12.111Z,3.80
2019-01-31T07:49:40.688Z,2.85
2019-01-31T07:52:09.518Z,3.12
2019-01-31T07:54:38.114Z,3.40
2019-01-31T07:57:06.749Z,2.90
2019-01-31T07:59:35.335Z,2.75
2019-01-31T08:02:03.923Z,3.37
2019-01-31T08:04:32.503Z,3.02
2019-01-31T08:07:01.155Z,4.10
2019-01-31T08:09:29.968Z,3.50
2019-01-31T08:11:58.567Z,3.20
2019-01-31T08:14:27.133Z,3.87
2019-01-31T08:16:55.921Z,4.08
2019-01-31T08:19:24.493Z,4.30
2019-01-31T08:21:53.063Z,4.85
2019-01-31T08:24:21.693Z,4.78
2019-01-31T08:26:50.257Z,5.15
2019-01-31T08:29:18.837Z,4.20
2019-01-31T08:31:47.787Z,5.03
2019-01-31T08:34:16.370Z,4.25
2019-01-31T08:36:44.938Z,4.83
2019-01-31T08:39:13.513Z,4.25
2019-01-31T08:41:42.080Z,5.80
2019-01-31T08:44:10.668Z,5.45
2019-01-31T08:46:39.241Z,5.10
2019-01-31T08:49:07.816Z,5.75
2019-01-31T08:51:36.391Z,5.35
2019-01-31T08:54:05.255Z,4.10
2019-01-31T08:56:33.827Z,5.50
2019-01-31T08:59:02.397Z,4.53
2019-01-31T09:01:30.973Z,4.90
2019-01-31T09:03:59.621Z,4.00
2019-01-31T09:06:28.163Z,4.10
2019-01-31T09:08:56.973Z,4.12
2019-01-31T09:11:25.557Z,4.25
2019-01-31T09:13:54.139Z,3.85
2019-01-31T09:16:22.964Z,4.40
2019-01-31T09:18:51.539Z,5.08
2019-01-31T09:21:48.517Z,4.30
2019-01-31T09:24:36.166Z,4.90
2019-01-31T09:27:27.987Z,4.87
2019-01-31T09:30:20.619Z,5.80
2019-01-31T09:33:31.094Z,6.80
2019-01-31T09:36:12.333Z,8.03
2019-01-31T09:39:11.312Z,6.42
2019-01-31T09:42:06.850Z,6.90
2019-01-31T09:44:58.682Z,6.50
2019-01-31T09:47:58.557Z,5.55
2019-01-31T09:51:02.673Z,6.25
2019-01-31T09:54:21.707Z,5.37
2019-01-31T09:57:21.981Z,6.17
2019-01-31T10:00:27.275Z,6.20
2019-01-31T10:06:32.272Z,5.45
2019-01-31T10:09:39.045Z,5.85
2019-01-31T10:12:25.263Z,6.80
2019-01-31T10:15:07.018Z,6.70
2019-01-31T10:18:26.515Z,5.78
2019-01-31T10:21:17.175Z,6.15
2019-01-31T10:24:22.897Z,5.75
2019-01-31T10:27:10.785Z,5.83
2019-01-31T10:30:05.331Z,5.78
2019-01-31T10:32:59.960Z,5.55
2019-01-31T10:36:05.931Z,5.80
2019-01-31T10:38:46.744Z,5.45
2019-01-31T10:41:43.836Z,6.33
2019-01-31T10:44:37.683Z,6.65
2019-01-31T10:47:49.454Z,5.90
2019-01-31T10:50:50.691Z,6.60
2019-01-31T10:53:51.174Z,5.97
2019-01-31T10:57:04.599Z,6.20
2019-01-31T10:59:50.257Z,6.20
2019-01-31T11:03:15.135Z,6.40
2019-01-31T11:06:16.630Z,6.20
2019-01-31T11:09:27.212Z,6.15
2019-01-31T11:12:28.256Z,6.25
2019-01-31T11:15:44.280Z,5.53
2019-01-31T11:18:48.782Z,5.72
2019-01-31T11:22:13.429Z,6.12
2019-01-31T11:25:21.758Z,5.00
2019-01-31T11:28:18.067Z,5.17
2019-01-31T11:31:34.044Z,6.28
2019-01-31T11:34:38.527Z,5.67
2019-01-31T11:37:47.716Z,5.78
2019-01-31T11:41:03.491Z,5.15
2019-01-31T11:44:08.843Z,4.80
2019-01-31T11:46:52.000Z,5.05
2019-01-31T11:49:50.004Z,4.85
2019-01-31T11:53:01.074Z,4.65
2019-01-31T11:55:51.978Z,4.22
2019-01-31T11:58:53.918Z,4.20
2019-01-31T12:01:22.523Z,4.85
2019-01-31T12:03:54.039Z,5.03
2019-01-31T12:06:22.624Z,4.87
2019-01-31T12:08:51.191Z,4.75
2019-01-31T12:11:19.760Z,4.40
2019-01-31T12:13:48.367Z,5.00
2019-01-31T12:16:17.116Z,4.70
2019-01-31T12:18:45.719Z,4.62
2019-01-31T12:21:14.608Z,3.80
2019-01-31T12:23:44.833Z,4.33
2019-01-31T12:26:14.005Z,4.03
2019-01-31T12:28:43.812Z,3.60
2019-01-31T12:31:12.733Z,4.08
2019-01-31T12:33:41.485Z,4.15
2019-01-31T12:36:10.069Z,5.12
2019-01-31T12:38:38.633Z,4.53
2019-01-31T12:41:07.373Z,4.20
2019-01-31T12:43:35.925Z,4.20
2019-01-31T12:46:04.660Z,3.77
2019-01-31T12:48:33.257Z,4.67
2019-01-31T12:51:01.852Z,4.42
2019-01-31T12:53:30.423Z,4.10
2019-01-31T12:55:59.014Z,4.50
2019-01-31T12:58:33.803Z,3.42
2019-01-31T13:00:58.223Z,4.03
2019-01-31T13:03:26.757Z,4.95
2019-01-31T13:05:55.345Z,3.83
2019-01-31T13:08:23.911Z,4.00
2019-01-31T13:10:52.492Z,4.30
2019-01-31T13:13:21.370Z,3.58
2019-01-31T13:15:50.103Z,3.83
2019-01-31T13:18:18.629Z,4.30
2019-01-31T13:20:47.209Z,3.90
2019-01-31T13:23:15.850Z,4.58
2019-01-31T13:25:44.528Z,3.92
2019-01-31T13:28:13.087Z,4.40
2019-01-31T13:30:41.658Z,4.15
2019-01-31T13:33:10.323Z,3.55
2019-01-31T13:35:39.222Z,3.65
2019-01-31T13:38:07.816Z,4.05
2019-01-31T13:40:36.451Z,4.00
2019-01-31T13:43:05.217Z,4.40
2019-01-31T13:45:36.047Z,3.85
2019-01-31T13:48:10.986Z,4.17
2019-01-31T13:50:39.616Z,4.10
2019-01-31T13:53:08.933Z,4.05
2019-01-31T13:55:37.609Z,3.77
2019-01-31T13:58:06.384Z,3.80
2019-01-31T14:00:34.966Z,4.55
2019-01-31T14:03:03.565Z,4.62
2019-01-31T14:05:32.207Z,4.22
2019-01-31T14:08:00.877Z,5.17
2019-01-31T14:10:29.579Z,4.15
2019-01-31T14:12:58.110Z,4.80
2019-01-31T14:15:33.637Z,5.42
2019-01-31T14:17:59.724Z,4.90
2019-01-31T14:20:28.728Z,4.60
2019-01-31T14:22:57.285Z,4.85
2019-01-31T14:25:26.103Z,4.55
2019-01-31T14:27:54.758Z,4.85
2019-01-31T14:30:34.782Z,5.10
2019-01-31T14:33:03.885Z,4.90
2019-01-31T14:35:32.669Z,5.28
2019-01-31T14:38:01.225Z,5.05
2019-01-31T14:40:29.898Z,4.50
2019-01-31T14:42:58.533Z,4.72
2019-01-31T14:45:30.024Z,5.83
2019-01-31T14:47:57.509Z,5.35
2019-01-31T14:50:28.737Z,5.72
2019-01-31T14:52:57.561Z,5.45
2019-01-31T14:55:26.234Z,5.72
2019-01-31T14:57:54.933Z,5.80
2019-01-31T15:00:25.343Z,5.53
2019-01-31T15:02:54.156Z,5.10
2019-01-31T15:05:22.737Z,5.20
2019-01-31T15:07:51.387Z,6.33
2019-01-31T15:10:22.345Z,5.80
2019-01-31T15:12:50.981Z,5.72
2019-01-31T15:15:19.608Z,5.95
2019-01-31T15:17:48.248Z,6.40
2019-01-31T15:20:34.474Z,5.70
2019-01-31T15:22:53.038Z,5.97
2019-01-31T15:25:21.693Z,5.70
2019-01-31T15:27:50.270Z,5.60
2019-01-31T15:30:24.477Z,5.53
2019-01-31T15:32:54.653Z,6.03
2019-01-31T15:35:23.224Z,5.85
2019-01-31T15:37:52.137Z,6.03
2019-01-31T15:40:27.599Z,5.85
2019-01-31T15:42:56.168Z,5.45
2019-01-31T15:45:24.822Z,6.72
2019-01-31T15:47:53.400Z,5.15
2019-01-31T15:50:22.941Z,6.17
2019-01-31T15:52:51.570Z,5.60
2019-01-31T15:55:20.740Z,5.12
2019-01-31T15:57:49.369Z,5.15
2019-01-31T16:00:24.995Z,5.50
2019-01-31T16:02:53.569Z,6.62
2019-01-31T16:05:22.225Z,6.87
2019-01-31T16:07:50.954Z,6.72
2019-01-31T16:10:19.645Z,6.70
2019-01-31T16:12:48.268Z,7.95
2019-01-31T16:15:16.987Z,7.28
2019-01-31T16:17:45.598Z,6.30
2019-01-31T16:20:14.267Z,6.45
2019-01-31T16:22:43.011Z,7.35
2019-01-31T16:25:11.714Z,7.25
2019-01-31T16:27:40.374Z,7.65
2019-01-31T16:30:10.920Z,8.48
2019-01-31T16:32:39.623Z,6.05
2019-01-31T16:35:10.313Z,5.95
2019-01-31T16:37:38.950Z,6.50
2019-01-31T16:40:10.350Z,6.65
2019-01-31T16:42:39.018Z,6.37
2019-01-31T16:45:09.545Z,6.75
2019-01-31T16:47:38.488Z,7.55
2019-01-31T16:50:10.407Z,8.03
2019-01-31T16:52:39.321Z,7.55
2019-01-31T16:55:09.524Z,8.10
2019-01-31T16:57:38.194Z,8.10
2019-01-31T17:00:09.120Z,8.10
2019-01-31T17:02:37.807Z,7.80
2019-01-31T17:05:08.687Z,7.85
2019-01-31T17:07:37.347Z,7.60
2019-01-31T17:10:06.544Z,8.75
2019-01-31T17:12:35.879Z,7.92
2019-01-31T17:15:05.496Z,9.25
2019-01-31T17:17:34.184Z,9.20
2019-01-31T17:20:03.073Z,9.23
2019-01-31T17:22:31.672Z,8.25
2019-01-31T17:25:00.355Z,8.80
2019-01-31T17:27:28.889Z,9.78
2019-01-31T17:29:57.519Z,10.25
2019-01-31T17:32:26.248Z,9.20
2019-01-31T17:34:54.932Z,8.53
2019-01-31T17:37:23.902Z,8.15
2019-01-31T17:39:52.966Z,7.50
2019-01-31T17:42:21.907Z,8.60
2019-01-31T17:44:53.252Z,8.53
2019-01-31T17:47:22.050Z,9.10
2019-01-31T17:49:51.517Z,9.35
2019-01-31T17:52:20.069Z,8.18
2019-01-31T17:54:48.814Z,9.30
2019-01-31T17:57:17.392Z,9.05
2019-01-31T17:59:45.973Z,9.60
2019-01-31T18:02:14.831Z,10.32
2019-01-31T18:04:43.490Z,9.05
2019-01-31T18:07:12.280Z,9.33
2019-01-31T18:09:40.956Z,9.48
2019-01-31T18:12:09.508Z,9.35
2019-01-31T18:14:38.089Z,9.45
2019-01-31T18:17:06.834Z,9.28
2019-01-31T18:19:35.814Z,9.43
2019-01-31T18:22:04.711Z,9.48
2019-01-31T18:24:33.351Z,9.30
2019-01-31T18:27:03.584Z,9.68
2019-01-31T18:29:32.192Z,10.65
2019-01-31T18:32:00.767Z,9.35
2019-01-31T18:34:29.642Z,9.20
2019-01-31T18:36:58.330Z,9.00
2019-01-31T18:39:27.039Z,9.60
2019-01-31T18:41:55.594Z,7.53
2019-01-31T18:44:24.266Z,8.83
2019-01-31T18:46:52.831Z,8.28
2019-01-31T18:49:21.405Z,9.63
2019-01-31T18:51:49.999Z,10.15
2019-01-31T18:54:24.472Z,10.20
2019-01-31T18:56:53.030Z,9.53
2019-01-31T18:59:21.939Z,10.30
2019-01-31T19:01:50.597Z,9.28
2019-01-31T19:04:19.210Z,10.25
2019-01-31T19:06:47.769Z,10.75
2019-01-31T19:09:16.357Z,12.88
2019-01-31T19:11:44.942Z,13.03
2019-01-31T19:14:14.497Z,13.10
2019-01-31T19:16:43.155Z,13.25
2019-01-31T19:19:11.738Z,11.55
2019-01-31T19:21:40.420Z,12.70
2019-01-31T19:24:09.046Z,12.05
2019-01-31T19:26:37.797Z,11.53
2019-01-31T19:29:06.449Z,12.13
2019-01-31T19:31:35.158Z,12.60
2019-01-31T19:34:03.763Z,9.63
2019-01-31T19:36:32.347Z,10.68
2019-01-31T19:39:00.913Z,11.30
2019-01-31T19:41:29.609Z,11.80
2019-01-31T19:43:58.169Z,10.60
2019-01-31T19:46:26.761Z,10.60
2019-01-31T19:48:55.348Z,11.40
2019-01-31T19:51:24.083Z,11.55
2019-01-31T19:53:53.721Z,11.48
2019-01-31T19:56:22.316Z,10.58
2019-01-31T19:58:50.964Z,11.90
2019-01-31T20:01:19.706Z,11.22
2019-01-31T20:03:48.532Z,9.35
2019-01-31T20:06:17.212Z,11.55
2019-01-31T20:08:45.855Z,10.18
2019-01-31T20:11:14.514Z,10.55
2019-01-31T20:13:43.932Z,10.40
2019-01-31T20:16:12.619Z,10.10
2019-01-31T20:18:41.195Z,10.82
2019-01-31T20:21:09.849Z,10.05
2019-01-31T20:23:38.424Z,9.55
2019-01-31T20:26:07.057Z,7.85
2019-01-31T20:28:35.655Z,9.53
2019-01-31T20:31:04.490Z,9.63
2019-01-31T20:33:33.067Z,8.75
2019-01-31T20:36:01.641Z,8.28
2019-01-31T20:38:30.229Z,7.80
2019-01-31T20:40:58.802Z,7.72
2019-01-31T20:43:27.396Z,8.70
2019-01-31T20:45:55.958Z,9.50
2019-01-31T20:48:24.595Z,8.05
2019-01-31T20:50:53.160Z,8.00
2019-01-31T20:53:21.750Z,7.40
2019-01-31T20:55:50.433Z,8.08
2019-01-31T20:58:19.023Z,7.10
2019-01-31T21:00:48.149Z,8.70
2019-01-31T21:03:16.803Z,8.30
2019-01-31T21:05:45.461Z,7.60
2019-01-31T21:08:14.762Z,8.15
2019-01-31T21:10:43.452Z,8.78
2019-01-31T21:13:12.393Z,7.05
2019-01-31T21:15:40.977Z,7.05
2019-01-31T21:18:09.625Z,7.25
2019-01-31T21:20:38.282Z,8.28
2019-01-31T21:23:07.593Z,7.67
2019-01-31T21:25:36.398Z,7.55
2019-01-31T21:28:05.543Z,8.25
2019-01-31T21:30:36.922Z,7.80
2019-01-31T21:33:06.217Z,8.90
2019-01-31T21:35:34.941Z,8.35
2019-01-31T21:38:03.653Z,8.30
2019-01-31T21:40:34.150Z,7.60
2019-01-31T21:43:03.289Z,8.80
2019-01-31T21:45:31.988Z,8.05
2019-01-31T21:48:00.542Z,7.67
2019-01-31T21:50:29.227Z,7.20
2019-01-31T21:52:58.109Z,9.18
2019-01-31T21:55:26.848Z,6.90
2019-01-31T21:57:55.745Z,7.05
2019-01-31T22:00:26.557Z,6.85
2019-01-31T22:02:55.288Z,7.12
2019-01-31T22:05:23.964Z,6.53
2019-01-31T22:07:52.602Z,7.58
2019-01-31T22:10:21.927Z,7.45
2019-01-31T22:12:50.690Z,7.75
2019-01-31T22:15:24.514Z,7.67
2019-01-31T22:17:53.236Z,8.43
2019-01-31T22:20:21.755Z,8.00
2019-01-31T22:22:50.388Z,7.40
2019-01-31T22:25:20.242Z,7.42
2019-01-31T22:27:48.819Z,8.03
2019-01-31T22:30:19.862Z,7.90
2019-01-31T22:32:48.499Z,6.90
2019-01-31T22:35:17.171Z,6.53
2019-01-31T22:37:45.735Z,7.20
2019-01-31T22:40:14.623Z,7.58
2019-01-31T22:42:43.253Z,8.20
2019-01-31T22:45:14.177Z,6.70
2019-01-31T22:47:42.743Z,6.67
2019-01-31T22:50:13.015Z,6.28
2019-01-31T22:52:41.573Z,7.03
2019-01-31T22:55:12.399Z,6.94
2019-01-31T22:57:40.972Z,6.62
2019-01-31T23:00:53.165Z,5.97
2019-01-31T23:03:21.723Z,5.85
2019-01-31T23:05:50.402Z,6.83
2019-01-31T23:08:18.994Z,7.35
2019-01-31T23:10:47.668Z,6.50
2019-01-31T23:13:16.247Z,6.62
2019-01-31T23:15:44.907Z,6.97
2019-01-31T23:18:13.490Z,6.62
2019-01-31T23:20:44.340Z,7.33
2019-01-31T23:23:12.531Z,6.90
2019-01-31T23:25:41.104Z,7.15
2019-01-31T23:28:09.934Z,7.10
2019-01-31T23:30:38.543Z,6.78
2019-01-31T23:33:07.191Z,7.60
2019-01-31T23:38:06.512Z,6.85
2019-01-31T23:40:35.101Z,7.37
2019-01-31T23:43:03.860Z,7.15
2019-01-31T23:48:20.173Z,7.08
2019-01-31T23:50:48.772Z,6.22
2019-01-31T23:53:17.394Z,5.83
2019-01-31T23:55:45.968Z,5.60
2019-01-31T23:58:15.841Z,5.90
